createdAt,value
2023-03-22T00:01:19.583Z,2.03
2023-03-22T00:03:48.346Z,1.92
2023-03-22T00:06:17.345Z,1.90
2023-03-22T00:08:45.890Z,2.30
2023-03-22T00:11:14.101Z,2.05
2023-03-22T00:13:43.038Z,2.40
2023-03-22T00:16:11.824Z,2.35
2023-03-22T00:18:41.615Z,2.10
2023-03-22T00:21:12.359Z,2.17
2023-03-22T00:23:40.859Z,2.03
2023-03-22T00:26:09.323Z,2.60
2023-03-22T00:28:37.306Z,2.58
2023-03-22T00:31:06.384Z,2.10
2023-03-22T00:33:34.616Z,2.35
2023-03-22T00:36:05.781Z,1.92
2023-03-22T00:38:42.496Z,2.45
2023-03-22T00:41:13.343Z,2.10
2023-03-22T00:43:41.329Z,2.50
2023-03-22T00:46:09.595Z,2.35
2023-03-22T00:48:37.397Z,2.50
2023-03-22T00:51:07.084Z,2.38
2023-03-22T00:53:36.412Z,2.20
2023-03-22T00:56:04.990Z,2.92
2023-03-22T00:58:32.940Z,2.40
2023-03-22T01:01:00.791Z,2.72
2023-03-22T01:03:28.629Z,2.80
2023-03-22T01:05:56.499Z,2.45
2023-03-22T01:08:25.833Z,2.60
2023-03-22T01:10:53.633Z,2.72
2023-03-22T01:13:21.369Z,2.85
2023-03-22T01:15:51.639Z,2.65
2023-03-22T01:18:19.851Z,2.95
2023-03-22T01:20:47.592Z,2.92
2023-03-22T01:23:15.360Z,2.78
2023-03-22T01:25:44.470Z,2.70
2023-03-22T01:28:12.186Z,2.55
2023-03-22T01:30:40.698Z,3.47
2023-03-22T01:33:09.125Z,2.78
2023-03-22T01:35:37.847Z,3.25
2023-03-22T01:38:05.656Z,3.38
2023-03-22T01:40:33.917Z,3.28
2023-03-22T01:43:03.221Z,3.35
2023-03-22T01:45:40.341Z,3.70
2023-03-22T01:48:15.635Z,3.15
2023-03-22T01:50:46.928Z,3.95
2023-03-22T01:53:19.141Z,4.07
2023-03-22T01:55:48.168Z,3.45
2023-03-22T01:58:18.256Z,3.35
2023-03-22T02:00:46.960Z,3.50
2023-03-22T02:03:19.403Z,3.38
2023-03-22T02:05:48.392Z,3.33
2023-03-22T02:08:16.215Z,3.67
2023-03-22T02:10:44.084Z,3.50
2023-03-22T02:13:30.684Z,3.97
2023-03-22T02:16:08.854Z,3.42
2023-03-22T02:18:55.149Z,4.15
2023-03-22T02:21:49.825Z,3.10
2023-03-22T02:24:46.256Z,3.42
2023-03-22T02:27:36.853Z,3.30
2023-03-22T02:30:26.417Z,3.40
2023-03-22T02:33:21.718Z,3.20
2023-03-22T02:36:10.018Z,3.30
2023-03-22T02:39:15.478Z,3.53
2023-03-22T02:41:59.799Z,3.10
2023-03-22T02:44:34.637Z,3.17
2023-03-22T02:47:06.720Z,2.85
2023-03-22T02:49:38.533Z,3.60
2023-03-22T02:52:17.367Z,3.10
2023-03-22T02:54:52.658Z,3.20
2023-03-22T02:57:27.197Z,2.60
2023-03-22T02:59:57.390Z,2.88
2023-03-22T03:02:29.174Z,3.10
2023-03-22T03:04:58.434Z,2.75
2023-03-22T03:07:28.430Z,2.95
2023-03-22T03:09:57.652Z,2.60
2023-03-22T03:12:26.954Z,3.20
2023-03-22T03:14:55.285Z,2.95
2023-03-22T03:17:37.297Z,2.78
2023-03-22T03:20:24.219Z,2.28
2023-03-22T03:23:07.305Z,3.03
2023-03-22T03:25:43.653Z,3.05
2023-03-22T03:28:22.947Z,2.30
2023-03-22T03:30:57.229Z,2.50
2023-03-22T03:33:29.157Z,2.85
2023-03-22T03:36:02.085Z,2.78
2023-03-22T03:38:33.396Z,2.80
2023-03-22T03:41:05.360Z,3.08
2023-03-22T03:43:35.338Z,2.35
2023-03-22T03:46:03.496Z,2.45
2023-03-22T03:48:33.859Z,2.40
2023-03-22T03:51:03.221Z,2.30
2023-03-22T03:53:31.501Z,2.20
2023-03-22T03:55:59.532Z,2.35
2023-03-22T03:58:30.456Z,2.08
2023-03-22T04:00:58.348Z,2.17
2023-03-22T04:03:26.316Z,2.15
2023-03-22T04:05:54.315Z,2.10
2023-03-22T04:08:22.014Z,2.55
2023-03-22T04:10:50.701Z,2.20
2023-03-22T04:13:19.150Z,1.88
2023-03-22T04:15:48.305Z,2.55
2023-03-22T04:18:16.062Z,2.38
2023-03-22T04:20:46.940Z,2.40
2023-03-22T04:23:14.681Z,2.05
2023-03-22T04:25:43.552Z,2.47
2023-03-22T04:28:13.635Z,1.95
2023-03-22T04:30:41.681Z,2.30
2023-03-22T04:33:12.204Z,2.25
2023-03-22T04:35:39.984Z,2.42
2023-03-22T04:38:07.889Z,1.90
2023-03-22T04:40:38.811Z,1.90
2023-03-22T04:43:06.814Z,2.55
2023-03-22T04:45:35.087Z,1.90
2023-03-22T04:48:02.927Z,1.90
2023-03-22T04:50:32.024Z,1.90
2023-03-22T04:52:59.775Z,1.95
2023-03-22T04:55:27.678Z,2.60
2023-03-22T04:57:55.986Z,1.77
2023-03-22T05:00:24.016Z,1.90
2023-03-22T05:02:51.844Z,2.35
2023-03-22T05:05:19.625Z,2.00
2023-03-22T05:07:48.725Z,2.10
2023-03-22T05:10:16.805Z,2.58
2023-03-22T05:12:44.663Z,2.00
2023-03-22T05:15:12.693Z,1.70
2023-03-22T05:17:40.424Z,1.60
2023-03-22T05:20:10.231Z,2.53
2023-03-22T05:22:40.715Z,2.33
2023-03-22T05:25:11.629Z,2.20
2023-03-22T05:27:39.425Z,1.77
2023-03-22T05:30:09.748Z,2.40
2023-03-22T05:32:37.643Z,1.73
2023-03-22T05:35:06.952Z,1.92
2023-03-22T05:37:34.751Z,2.13
2023-03-22T05:40:02.580Z,2.08
2023-03-22T05:42:32.290Z,1.80
2023-03-22T05:45:00.031Z,1.80
2023-03-22T05:47:27.760Z,2.17
2023-03-22T05:49:55.507Z,1.70
2023-03-22T05:52:23.197Z,1.83
2023-03-22T05:54:51.282Z,1.83
2023-03-22T05:57:19.041Z,1.85
2023-03-22T05:59:48.145Z,1.95
2023-03-22T06:02:15.983Z,1.80
2023-03-22T06:04:43.787Z,1.80
2023-03-22T06:07:11.626Z,2.03
2023-03-22T06:09:39.622Z,1.92
2023-03-22T06:12:07.677Z,1.67
2023-03-22T06:14:35.743Z,1.88
2023-03-22T06:17:04.880Z,2.00
2023-03-22T06:19:32.627Z,1.63
2023-03-22T06:22:00.382Z,1.73
2023-03-22T06:24:28.144Z,2.85
2023-03-22T06:26:55.932Z,2.70
2023-03-22T06:29:23.704Z,2.45
2023-03-22T06:31:51.427Z,1.98
2023-03-22T06:34:20.593Z,1.98
2023-03-22T06:36:48.353Z,2.40
2023-03-22T06:39:16.082Z,1.83
2023-03-22T06:41:43.855Z,1.80
2023-03-22T06:44:11.568Z,2.17
2023-03-22T06:46:39.419Z,2.25
2023-03-22T06:49:07.954Z,2.85
2023-03-22T06:51:37.445Z,2.05
2023-03-22T06:54:05.601Z,2.08
2023-03-22T06:56:33.353Z,2.15
2023-03-22T06:59:01.143Z,1.90
2023-03-22T07:01:28.897Z,2.03
2023-03-22T07:03:56.648Z,2.33
2023-03-22T07:06:24.457Z,2.25
2023-03-22T07:08:53.631Z,2.60
2023-03-22T07:11:21.463Z,2.20
2023-03-22T07:13:49.215Z,2.85
2023-03-22T07:16:19.450Z,2.53
2023-03-22T07:18:48.258Z,2.50
2023-03-22T07:21:16.327Z,2.53
2023-03-22T07:23:44.211Z,2.40
2023-03-22T07:26:13.845Z,2.17
2023-03-22T07:28:44.559Z,2.45
2023-03-22T07:31:13.766Z,2.35
2023-03-22T07:33:42.116Z,2.42
2023-03-22T07:36:11.347Z,2.42
2023-03-22T07:38:39.196Z,2.35
2023-03-22T07:41:07.573Z,2.65
2023-03-22T07:43:50.706Z,2.17
2023-03-22T07:46:21.048Z,2.03
2023-03-22T07:48:49.100Z,2.33
2023-03-22T07:51:16.992Z,1.98
2023-03-22T07:53:44.771Z,2.22
2023-03-22T07:56:12.536Z,1.90
2023-03-22T07:58:41.791Z,2.05
2023-03-22T08:01:10.829Z,2.00
2023-03-22T08:03:39.080Z,3.38
2023-03-22T08:06:08.546Z,1.92
2023-03-22T08:08:37.843Z,1.73
2023-03-22T08:11:05.960Z,1.75
2023-03-22T08:13:34.152Z,1.80
2023-03-22T08:16:03.506Z,1.38
2023-03-22T08:18:31.509Z,1.92
2023-03-22T08:21:00.791Z,2.10
2023-03-22T08:23:41.018Z,2.40
2023-03-22T08:26:09.991Z,2.33
2023-03-22T08:28:37.982Z,2.10
2023-03-22T08:31:15.128Z,1.75
2023-03-22T08:33:44.010Z,2.47
2023-03-22T08:36:15.246Z,1.70
2023-03-22T08:38:45.173Z,1.83
2023-03-22T08:41:13.268Z,1.58
2023-03-22T08:43:41.124Z,2.20
2023-03-22T08:46:09.416Z,1.52
2023-03-22T08:48:41.641Z,2.22
2023-03-22T08:51:09.886Z,1.25
2023-03-22T08:53:37.846Z,2.03
2023-03-22T08:56:07.820Z,1.50
2023-03-22T08:58:36.256Z,1.50
2023-03-22T09:01:04.110Z,1.83
2023-03-22T09:03:31.983Z,1.98
2023-03-22T09:06:01.123Z,2.00
2023-03-22T09:08:29.157Z,1.67
2023-03-22T09:10:56.956Z,2.10
2023-03-22T09:13:24.702Z,1.95
2023-03-22T09:15:53.205Z,1.90
2023-03-22T09:18:21.036Z,2.58
2023-03-22T09:20:49.201Z,1.55
2023-03-22T09:23:18.415Z,1.60
2023-03-22T09:25:46.853Z,1.70
2023-03-22T09:28:14.956Z,1.85
2023-03-22T09:30:43.205Z,2.45
2023-03-22T09:33:11.230Z,1.50
2023-03-22T09:35:42.780Z,1.70
2023-03-22T09:38:12.216Z,2.10
2023-03-22T09:41:00.581Z,2.05
2023-03-22T09:43:33.037Z,1.63
2023-03-22T09:46:02.023Z,1.63
2023-03-22T09:48:34.188Z,1.90
2023-03-22T09:51:03.393Z,3.03
2023-03-22T09:53:33.370Z,1.67
2023-03-22T09:56:08.197Z,1.75
2023-03-22T09:58:45.828Z,1.50
2023-03-22T10:01:23.331Z,1.85
2023-03-22T10:04:07.162Z,2.03
2023-03-22T10:06:35.030Z,2.33
2023-03-22T10:09:10.566Z,1.40
2023-03-22T10:11:46.404Z,1.80
2023-03-22T10:14:30.791Z,1.83
2023-03-22T10:17:03.702Z,1.70
2023-03-22T10:19:36.712Z,2.10
2023-03-22T10:22:07.073Z,2.78
2023-03-22T10:24:39.603Z,1.92
2023-03-22T10:27:16.569Z,1.58
2023-03-22T10:29:50.422Z,2.33
2023-03-22T10:32:19.923Z,1.98
2023-03-22T10:34:49.399Z,2.25
2023-03-22T10:37:21.290Z,3.15
2023-03-22T10:39:52.242Z,2.40
2023-03-22T10:42:25.030Z,3.00
2023-03-22T10:44:57.077Z,2.40
2023-03-22T10:47:33.180Z,2.00
2023-03-22T10:50:03.924Z,1.70
2023-03-22T10:52:39.544Z,2.10
2023-03-22T10:55:12.517Z,2.72
2023-03-22T10:57:43.956Z,1.88
2023-03-22T11:00:17.530Z,2.00
2023-03-22T11:02:52.053Z,1.70
2023-03-22T11:05:23.846Z,1.70
2023-03-22T11:07:52.181Z,2.00
2023-03-22T11:10:23.228Z,2.47
2023-03-22T11:12:54.987Z,1.85
2023-03-22T11:15:27.672Z,2.00
2023-03-22T11:18:01.230Z,1.75
2023-03-22T11:20:31.050Z,1.60
2023-03-22T11:23:02.616Z,2.42
2023-03-22T11:25:32.459Z,1.75
2023-03-22T11:28:16.339Z,2.05
2023-03-22T11:30:59.575Z,1.75
2023-03-22T11:33:27.580Z,1.80
2023-03-22T11:35:57.621Z,1.83
2023-03-22T11:38:29.509Z,2.08
2023-03-22T11:41:01.214Z,1.63
2023-03-22T11:43:35.352Z,1.20
2023-03-22T11:46:04.044Z,1.52
2023-03-22T11:48:33.826Z,1.92
2023-03-22T11:51:09.004Z,1.40
2023-03-22T11:53:40.454Z,1.38
2023-03-22T11:56:11.593Z,1.80
2023-03-22T11:58:56.335Z,2.25
2023-03-22T12:01:34.474Z,1.40
2023-03-22T12:04:05.394Z,1.80
2023-03-22T12:06:37.758Z,1.60
2023-03-22T12:09:10.137Z,2.00
2023-03-22T12:11:41.106Z,1.40
2023-03-22T12:14:17.854Z,1.67
2023-03-22T12:19:28.206Z,1.48
2023-03-22T12:21:56.460Z,1.30
2023-03-22T12:24:29.021Z,1.17
2023-03-22T12:27:01.213Z,1.13
2023-03-22T12:29:31.518Z,1.05
2023-03-22T12:32:03.442Z,1.30
2023-03-22T12:34:39.954Z,1.98
2023-03-22T12:37:12.917Z,1.27
2023-03-22T12:39:46.178Z,1.20
2023-03-22T12:42:21.991Z,1.63
2023-03-22T12:45:04.616Z,2.10
2023-03-22T12:47:41.566Z,1.42
2023-03-22T12:50:15.351Z,1.60
2023-03-22T12:52:46.999Z,1.48
2023-03-22T12:55:23.528Z,1.30
2023-03-22T12:57:54.460Z,2.05
2023-03-22T13:00:29.373Z,1.58
2023-03-22T13:03:02.435Z,2.90
2023-03-22T13:05:33.684Z,1.27
2023-03-22T13:08:04.089Z,1.30
2023-03-22T13:10:57.614Z,1.48
2023-03-22T13:13:42.834Z,1.30
2023-03-22T13:16:24.417Z,1.60
2023-03-22T13:19:06.814Z,1.30
2023-03-22T13:21:36.710Z,1.80
2023-03-22T13:24:23.260Z,1.48
2023-03-22T13:26:53.645Z,1.45
2023-03-22T13:29:24.493Z,1.17
2023-03-22T13:31:59.924Z,1.33
2023-03-22T13:34:37.521Z,1.90
2023-03-22T13:37:10.895Z,1.60
2023-03-22T13:39:39.348Z,1.30
2023-03-22T13:42:21.138Z,1.83
2023-03-22T13:44:58.542Z,1.10
2023-03-22T13:47:38.040Z,1.27
2023-03-22T13:50:13.293Z,1.60
2023-03-22T13:52:44.153Z,1.27
2023-03-22T13:55:37.476Z,1.10
2023-03-22T13:58:05.850Z,1.20
2023-03-22T14:00:44.856Z,1.40
2023-03-22T14:03:21.353Z,1.30
2023-03-22T14:08:22.782Z,1.10
2023-03-22T14:10:56.466Z,2.03
2023-03-22T14:13:32.589Z,1.25
2023-03-22T14:16:07.445Z,1.77
2023-03-22T14:18:41.031Z,1.58
2023-03-22T14:21:13.789Z,1.27
